Terminal Aerodrome Forecast
Issued by NWS Louisville, KY

Home | Current Version | Previous Version | Text Only | Print | Product List | Glossary On
Versions: 1 2 3 4 5 6 7 8 9 10 11 12 13
000
FTUS43 KLMK 290500
TAFLEX
TAF
KLEX 290520Z 2906/3006 08005KT P6SM SCT250
      TEMPO 2910/2913 5SM BR
     FM291400 17007KT P6SM SCT040 SCT250 PROB30 2921/3001 VRB15G25KT
      3SM TSRA BKN025CB
     FM300200 15005KT P6SM SCT050 SCT250=

USA.gov is the U.S. government's official web portal to all federal, state and local government web resources and services.